sensor_id;sensor_type;location;lat;lon;timestamp;P1;durP1;ratioP1;P2;durP2;ratioP2
14554;SDS011;7364;50.870;4.722;2023-03-23T00:01:00;4.10;;;3.13;;
14554;SDS011;7364;50.870;4.722;2023-03-23T00:03:28;3.90;;;2.80;;
14554;SDS011;7364;50.870;4.722;2023-03-23T00:05:58;4.60;;;3.30;;
14554;SDS011;7364;50.870;4.722;2023-03-23T00:08:31;5.27;;;3.13;;
14554;SDS011;7364;50.870;4.722;2023-03-23T00:11:03;4.17;;;3.07;;
14554;SDS011;7364;50.870;4.722;2023-03-23T00:13:30;5.27;;;3.40;;
14554;SDS011;7364;50.870;4.722;2023-03-23T00:15:58;5.23;;;3.90;;
14554;SDS011;7364;50.870;4.722;2023-03-23T00:18:25;4.37;;;3.07;;
14554;SDS011;7364;50.870;4.722;2023-03-23T00:20:53;5.13;;;3.13;;
14554;SDS011;7364;50.870;4.722;2023-03-23T00:23:25;4.80;;;3.50;;
14554;SDS011;7364;50.870;4.722;2023-03-23T00:25:57;7.33;;;2.93;;
14554;SDS011;7364;50.870;4.722;2023-03-23T00:28:24;4.17;;;3.13;;
14554;SDS011;7364;50.870;4.722;2023-03-23T00:30:56;7.17;;;4.10;;
14554;SDS011;7364;50.870;4.722;2023-03-23T00:33:25;5.00;;;3.40;;
14554;SDS011;7364;50.870;4.722;2023-03-23T00:35:55;4.60;;;3.30;;
14554;SDS011;7364;50.870;4.722;2023-03-23T00:38:23;4.30;;;3.20;;
14554;SDS011;7364;50.870;4.722;2023-03-23T00:40:52;4.00;;;3.27;;
14554;SDS011;7364;50.870;4.722;2023-03-23T00:43:19;4.43;;;3.07;;
14554;SDS011;7364;50.870;4.722;2023-03-23T00:45:49;4.00;;;2.80;;
14554;SDS011;7364;50.870;4.722;2023-03-23T00:48:18;3.67;;;2.90;;
14554;SDS011;7364;50.870;4.722;2023-03-23T00:50:46;4.23;;;2.93;;
14554;SDS011;7364;50.870;4.722;2023-03-23T00:53:13;4.63;;;3.37;;
14554;SDS011;7364;50.870;4.722;2023-03-23T00:55:42;4.37;;;3.30;;
14554;SDS011;7364;50.870;4.722;2023-03-23T00:58:10;7.97;;;3.80;;
14554;SDS011;7364;50.870;4.722;2023-03-23T01:00:38;3.77;;;3.13;;
14554;SDS011;7364;50.870;4.722;2023-03-23T01:03:06;9.33;;;3.60;;
14554;SDS011;7364;50.870;4.722;2023-03-23T01:05:37;5.03;;;3.27;;
14554;SDS011;7364;50.870;4.722;2023-03-23T01:08:06;5.47;;;3.33;;
14554;SDS011;7364;50.870;4.722;2023-03-23T01:10:33;4.53;;;3.00;;
14554;SDS011;7364;50.870;4.722;2023-03-23T01:13:05;3.20;;;2.77;;
14554;SDS011;7364;50.870;4.722;2023-03-23T01:15:33;3.73;;;2.97;;
14554;SDS011;7364;50.870;4.722;2023-03-23T01:18:00;6.10;;;2.90;;
14554;SDS011;7364;50.870;4.722;2023-03-23T01:20:28;3.03;;;2.73;;
14554;SDS011;7364;50.870;4.722;2023-03-23T01:22:56;4.90;;;3.20;;
14554;SDS011;7364;50.870;4.722;2023-03-23T01:25:26;4.23;;;2.80;;
14554;SDS011;7364;50.870;4.722;2023-03-23T01:27:54;4.93;;;3.07;;
14554;SDS011;7364;50.870;4.722;2023-03-23T01:30:24;6.70;;;3.10;;
14554;SDS011;7364;50.870;4.722;2023-03-23T01:32:51;3.50;;;2.70;;
14554;SDS011;7364;50.870;4.722;2023-03-23T01:35:20;5.17;;;2.83;;
14554;SDS011;7364;50.870;4.722;2023-03-23T01:37:48;5.43;;;3.70;;
14554;SDS011;7364;50.870;4.722;2023-03-23T01:40:18;4.70;;;3.23;;
14554;SDS011;7364;50.870;4.722;2023-03-23T01:42:45;6.73;;;3.30;;
14554;SDS011;7364;50.870;4.722;2023-03-23T01:48:07;3.57;;;2.90;;
14554;SDS011;7364;50.870;4.722;2023-03-23T01:50:43;5.70;;;3.73;;
14554;SDS011;7364;50.870;4.722;2023-03-23T01:53:16;5.03;;;2.90;;
14554;SDS011;7364;50.870;4.722;2023-03-23T01:55:46;5.07;;;2.90;;
14554;SDS011;7364;50.870;4.722;2023-03-23T01:58:17;5.30;;;2.70;;
14554;SDS011;7364;50.870;4.722;2023-03-23T02:00:52;6.13;;;3.27;;
14554;SDS011;7364;50.870;4.722;2023-03-23T02:03:21;4.57;;;2.97;;
14554;SDS011;7364;50.870;4.722;2023-03-23T02:05:50;5.47;;;3.23;;
14554;SDS011;7364;50.870;4.722;2023-03-23T02:08:18;4.70;;;3.27;;
14554;SDS011;7364;50.870;4.722;2023-03-23T02:10:48;5.30;;;3.33;;
14554;SDS011;7364;50.870;4.722;2023-03-23T02:13:15;7.50;;;3.30;;
14554;SDS011;7364;50.870;4.722;2023-03-23T02:15:47;6.20;;;2.70;;
14554;SDS011;7364;50.870;4.722;2023-03-23T02:18:25;3.97;;;2.77;;
14554;SDS011;7364;50.870;4.722;2023-03-23T02:21:33;5.87;;;2.93;;
14554;SDS011;7364;50.870;4.722;2023-03-23T02:27:28;4.37;;;3.13;;
14554;SDS011;7364;50.870;4.722;2023-03-23T02:30:20;4.20;;;3.10;;
14554;SDS011;7364;50.870;4.722;2023-03-23T02:33:13;4.87;;;3.20;;
14554;SDS011;7364;50.870;4.722;2023-03-23T02:35:56;5.13;;;3.10;;
14554;SDS011;7364;50.870;4.722;2023-03-23T02:38:28;6.10;;;3.10;;
14554;SDS011;7364;50.870;4.722;2023-03-23T02:41:00;4.03;;;2.60;;
14554;SDS011;7364;50.870;4.722;2023-03-23T02:43:31;5.07;;;3.00;;
14554;SDS011;7364;50.870;4.722;2023-03-23T02:46:04;3.70;;;2.53;;
14554;SDS011;7364;50.870;4.722;2023-03-23T02:48:36;4.33;;;2.53;;
14554;SDS011;7364;50.870;4.722;2023-03-23T02:51:05;4.23;;;2.17;;
14554;SDS011;7364;50.870;4.722;2023-03-23T02:53:36;4.33;;;2.77;;
14554;SDS011;7364;50.870;4.722;2023-03-23T02:56:06;3.80;;;2.53;;
14554;SDS011;7364;50.870;4.722;2023-03-23T02:58:36;2.87;;;2.10;;
14554;SDS011;7364;50.870;4.722;2023-03-23T03:01:44;4.20;;;2.60;;
14554;SDS011;7364;50.870;4.722;2023-03-23T03:04:19;4.67;;;2.60;;
14554;SDS011;7364;50.870;4.722;2023-03-23T03:06:52;3.83;;;2.23;;
14554;SDS011;7364;50.870;4.722;2023-03-23T03:09:31;3.60;;;2.40;;
14554;SDS011;7364;50.870;4.722;2023-03-23T03:12:08;4.63;;;2.60;;
14554;SDS011;7364;50.870;4.722;2023-03-23T03:14:38;4.40;;;2.90;;
14554;SDS011;7364;50.870;4.722;2023-03-23T03:17:17;5.63;;;3.00;;
14554;SDS011;7364;50.870;4.722;2023-03-23T03:19:52;3.67;;;2.43;;
14554;SDS011;7364;50.870;4.722;2023-03-23T03:22:25;8.30;;;2.27;;
14554;SDS011;7364;50.870;4.722;2023-03-23T03:24:55;5.93;;;3.10;;
14554;SDS011;7364;50.870;4.722;2023-03-23T03:27:24;4.13;;;2.53;;
14554;SDS011;7364;50.870;4.722;2023-03-23T03:29:53;5.20;;;2.57;;
14554;SDS011;7364;50.870;4.722;2023-03-23T03:32:24;6.00;;;2.33;;
14554;SDS011;7364;50.870;4.722;2023-03-23T03:35:00;3.13;;;2.33;;
14554;SDS011;7364;50.870;4.722;2023-03-23T03:37:32;3.97;;;2.43;;
14554;SDS011;7364;50.870;4.722;2023-03-23T03:40:03;4.13;;;2.43;;
14554;SDS011;7364;50.870;4.722;2023-03-23T03:42:37;5.20;;;2.13;;
14554;SDS011;7364;50.870;4.722;2023-03-23T03:45:05;5.87;;;2.70;;
14554;SDS011;7364;50.870;4.722;2023-03-23T03:47:34;5.30;;;2.43;;
14554;SDS011;7364;50.870;4.722;2023-03-23T03:50:03;4.20;;;2.17;;
14554;SDS011;7364;50.870;4.722;2023-03-23T03:52:31;3.83;;;2.50;;
14554;SDS011;7364;50.870;4.722;2023-03-23T03:55:02;5.30;;;2.63;;
14554;SDS011;7364;50.870;4.722;2023-03-23T03:57:32;4.13;;;2.23;;
14554;SDS011;7364;50.870;4.722;2023-03-23T03:59:59;3.77;;;2.33;;
14554;SDS011;7364;50.870;4.722;2023-03-23T04:02:29;3.43;;;2.17;;
14554;SDS011;7364;50.870;4.722;2023-03-23T04:04:56;4.13;;;2.20;;
14554;SDS011;7364;50.870;4.722;2023-03-23T04:07:25;3.90;;;2.60;;
14554;SDS011;7364;50.870;4.722;2023-03-23T04:09:54;5.23;;;2.40;;
14554;SDS011;7364;50.870;4.722;2023-03-23T04:12:21;4.50;;;2.70;;
14554;SDS011;7364;50.870;4.722;2023-03-23T04:14:49;3.30;;;2.37;;
14554;SDS011;7364;50.870;4.722;2023-03-23T04:17:16;4.90;;;2.63;;
14554;SDS011;7364;50.870;4.722;2023-03-23T04:19:45;4.83;;;2.20;;
14554;SDS011;7364;50.870;4.722;2023-03-23T04:22:12;6.70;;;2.47;;
14554;SDS011;7364;50.870;4.722;2023-03-23T04:24:43;3.33;;;2.23;;
14554;SDS011;7364;50.870;4.722;2023-03-23T04:27:11;5.47;;;2.90;;
14554;SDS011;7364;50.870;4.722;2023-03-23T04:29:38;9.13;;;2.90;;
14554;SDS011;7364;50.870;4.722;2023-03-23T04:32:06;5.33;;;2.27;;
14554;SDS011;7364;50.870;4.722;2023-03-23T04:34:33;5.70;;;2.53;;
14554;SDS011;7364;50.870;4.722;2023-03-23T04:37:01;3.23;;;2.10;;
14554;SDS011;7364;50.870;4.722;2023-03-23T04:39:29;4.83;;;2.27;;
14554;SDS011;7364;50.870;4.722;2023-03-23T04:42:00;5.20;;;2.60;;
14554;SDS011;7364;50.870;4.722;2023-03-23T04:44:27;5.20;;;2.30;;
14554;SDS011;7364;50.870;4.722;2023-03-23T04:46:59;2.97;;;1.70;;
14554;SDS011;7364;50.870;4.722;2023-03-23T04:49:27;5.40;;;2.40;;
14554;SDS011;7364;50.870;4.722;2023-03-23T04:51:58;6.73;;;2.60;;
14554;SDS011;7364;50.870;4.722;2023-03-23T04:54:25;4.43;;;2.33;;
14554;SDS011;7364;50.870;4.722;2023-03-23T04:56:54;5.30;;;2.17;;
14554;SDS011;7364;50.870;4.722;2023-03-23T04:59:23;4.20;;;2.47;;
14554;SDS011;7364;50.870;4.722;2023-03-23T05:01:53;6.20;;;2.17;;
14554;SDS011;7364;50.870;4.722;2023-03-23T05:04:21;3.83;;;1.80;;
14554;SDS011;7364;50.870;4.722;2023-03-23T05:06:50;2.67;;;1.53;;
14554;SDS011;7364;50.870;4.722;2023-03-23T05:09:18;3.50;;;1.77;;
14554;SDS011;7364;50.870;4.722;2023-03-23T05:11:46;2.97;;;1.63;;
14554;SDS011;7364;50.870;4.722;2023-03-23T05:14:13;4.10;;;1.90;;
14554;SDS011;7364;50.870;4.722;2023-03-23T05:16:42;4.17;;;2.03;;
14554;SDS011;7364;50.870;4.722;2023-03-23T05:19:12;3.50;;;2.10;;
14554;SDS011;7364;50.870;4.722;2023-03-23T05:21:39;2.17;;;1.40;;
14554;SDS011;7364;50.870;4.722;2023-03-23T05:24:07;5.37;;;1.77;;
14554;SDS011;7364;50.870;4.722;2023-03-23T05:26:34;5.50;;;1.93;;
14554;SDS011;7364;50.870;4.722;2023-03-23T05:29:01;3.93;;;1.87;;
14554;SDS011;7364;50.870;4.722;2023-03-23T05:31:29;3.93;;;1.80;;
14554;SDS011;7364;50.870;4.722;2023-03-23T05:33:58;3.83;;;1.80;;
14554;SDS011;7364;50.870;4.722;2023-03-23T05:36:26;3.07;;;1.87;;
14554;SDS011;7364;50.870;4.722;2023-03-23T05:38:53;4.20;;;1.93;;
14554;SDS011;7364;50.870;4.722;2023-03-23T05:41:21;4.30;;;1.90;;
14554;SDS011;7364;50.870;4.722;2023-03-23T05:43:51;5.13;;;1.97;;
14554;SDS011;7364;50.870;4.722;2023-03-23T05:46:18;5.07;;;1.80;;
14554;SDS011;7364;50.870;4.722;2023-03-23T05:48:45;4.67;;;1.80;;
14554;SDS011;7364;50.870;4.722;2023-03-23T05:51:14;2.57;;;1.70;;
14554;SDS011;7364;50.870;4.722;2023-03-23T05:53:42;5.60;;;1.90;;
14554;SDS011;7364;50.870;4.722;2023-03-23T05:56:09;3.10;;;1.80;;
14554;SDS011;7364;50.870;4.722;2023-03-23T05:58:37;4.27;;;1.97;;
14554;SDS011;7364;50.870;4.722;2023-03-23T06:01:05;4.77;;;2.20;;
14554;SDS011;7364;50.870;4.722;2023-03-23T06:03:33;3.40;;;1.93;;
14554;SDS011;7364;50.870;4.722;2023-03-23T06:06:01;9.53;;;2.03;;
14554;SDS011;7364;50.870;4.722;2023-03-23T06:08:31;6.57;;;1.97;;
14554;SDS011;7364;50.870;4.722;2023-03-23T06:10:58;2.70;;;1.67;;
14554;SDS011;7364;50.870;4.722;2023-03-23T06:13:26;3.87;;;2.13;;
14554;SDS011;7364;50.870;4.722;2023-03-23T06:15:54;5.00;;;2.30;;
14554;SDS011;7364;50.870;4.722;2023-03-23T06:18:23;4.03;;;2.03;;
14554;SDS011;7364;50.870;4.722;2023-03-23T06:20:53;6.27;;;2.03;;
14554;SDS011;7364;50.870;4.722;2023-03-23T06:23:21;2.13;;;1.50;;
14554;SDS011;7364;50.870;4.722;2023-03-23T06:25:52;7.27;;;2.40;;
14554;SDS011;7364;50.870;4.722;2023-03-23T06:28:22;4.57;;;2.20;;
14554;SDS011;7364;50.870;4.722;2023-03-23T06:30:49;6.17;;;2.23;;
14554;SDS011;7364;50.870;4.722;2023-03-23T06:33:17;3.50;;;1.83;;
14554;SDS011;7364;50.870;4.722;2023-03-23T06:35:45;7.47;;;1.93;;
14554;SDS011;7364;50.870;4.722;2023-03-23T06:38:13;5.27;;;2.03;;
14554;SDS011;7364;50.870;4.722;2023-03-23T06:40:42;3.73;;;2.07;;
14554;SDS011;7364;50.870;4.722;2023-03-23T06:43:13;4.10;;;2.00;;
14554;SDS011;7364;50.870;4.722;2023-03-23T06:45:44;3.47;;;1.90;;
14554;SDS011;7364;50.870;4.722;2023-03-23T06:48:11;4.10;;;2.00;;
14554;SDS011;7364;50.870;4.722;2023-03-23T06:50:38;3.67;;;1.97;;
14554;SDS011;7364;50.870;4.722;2023-03-23T06:53:10;4.20;;;1.90;;
14554;SDS011;7364;50.870;4.722;2023-03-23T06:55:38;5.03;;;2.10;;
14554;SDS011;7364;50.870;4.722;2023-03-23T06:58:05;4.07;;;2.10;;
14554;SDS011;7364;50.870;4.722;2023-03-23T07:00:35;6.03;;;2.17;;
14554;SDS011;7364;50.870;4.722;2023-03-23T07:03:02;7.40;;;1.83;;
14554;SDS011;7364;50.870;4.722;2023-03-23T07:05:30;4.43;;;2.30;;
14554;SDS011;7364;50.870;4.722;2023-03-23T07:07:59;4.80;;;1.93;;
14554;SDS011;7364;50.870;4.722;2023-03-23T07:10:27;4.33;;;2.33;;
14554;SDS011;7364;50.870;4.722;2023-03-23T07:12:54;6.80;;;1.90;;
14554;SDS011;7364;50.870;4.722;2023-03-23T07:15:22;4.40;;;2.07;;
14554;SDS011;7364;50.870;4.722;2023-03-23T07:17:51;5.37;;;1.83;;
14554;SDS011;7364;50.870;4.722;2023-03-23T07:20:19;5.90;;;2.20;;
14554;SDS011;7364;50.870;4.722;2023-03-23T07:22:48;6.10;;;2.40;;
14554;SDS011;7364;50.870;4.722;2023-03-23T07:25:16;3.70;;;2.03;;
14554;SDS011;7364;50.870;4.722;2023-03-23T07:27:45;6.03;;;2.33;;
14554;SDS011;7364;50.870;4.722;2023-03-23T07:30:12;3.73;;;2.17;;
14554;SDS011;7364;50.870;4.722;2023-03-23T07:32:40;10.20;;;2.57;;
14554;SDS011;7364;50.870;4.722;2023-03-23T07:35:09;5.87;;;1.90;;
14554;SDS011;7364;50.870;4.722;2023-03-23T07:37:37;7.00;;;2.00;;
14554;SDS011;7364;50.870;4.722;2023-03-23T07:40:05;3.93;;;2.00;;
14554;SDS011;7364;50.870;4.722;2023-03-23T07:42:40;4.20;;;2.13;;
14554;SDS011;7364;50.870;4.722;2023-03-23T07:45:09;3.17;;;0.97;;
14554;SDS011;7364;50.870;4.722;2023-03-23T07:47:37;1.00;;;0.87;;
14554;SDS011;7364;50.870;4.722;2023-03-23T07:50:06;1.07;;;0.80;;
14554;SDS011;7364;50.870;4.722;2023-03-23T07:52:36;2.30;;;1.00;;
14554;SDS011;7364;50.870;4.722;2023-03-23T07:55:04;1.60;;;0.90;;
14554;SDS011;7364;50.870;4.722;2023-03-23T07:57:33;3.40;;;0.90;;
14554;SDS011;7364;50.870;4.722;2023-03-23T08:00:02;1.53;;;0.93;;
14554;SDS011;7364;50.870;4.722;2023-03-23T08:02:40;3.37;;;1.83;;
14554;SDS011;7364;50.870;4.722;2023-03-23T08:05:08;2.77;;;1.50;;
14554;SDS011;7364;50.870;4.722;2023-03-23T08:07:42;3.13;;;1.43;;
14554;SDS011;7364;50.870;4.722;2023-03-23T08:10:11;2.87;;;1.50;;
14554;SDS011;7364;50.870;4.722;2023-03-23T08:12:43;6.90;;;2.17;;
14554;SDS011;7364;50.870;4.722;2023-03-23T08:15:12;4.33;;;1.47;;
14554;SDS011;7364;50.870;4.722;2023-03-23T08:17:41;4.93;;;1.77;;
14554;SDS011;7364;50.870;4.722;2023-03-23T08:20:09;3.10;;;2.07;;
14554;SDS011;7364;50.870;4.722;2023-03-23T08:22:40;3.47;;;2.13;;
14554;SDS011;7364;50.870;4.722;2023-03-23T08:25:11;3.97;;;2.10;;
14554;SDS011;7364;50.870;4.722;2023-03-23T08:27:42;3.03;;;1.67;;
14554;SDS011;7364;50.870;4.722;2023-03-23T08:30:10;2.97;;;1.80;;
14554;SDS011;7364;50.870;4.722;2023-03-23T08:32:39;4.40;;;2.03;;
14554;SDS011;7364;50.870;4.722;2023-03-23T08:35:08;3.47;;;1.77;;
14554;SDS011;7364;50.870;4.722;2023-03-23T08:37:36;3.60;;;1.33;;
14554;SDS011;7364;50.870;4.722;2023-03-23T08:40:09;4.13;;;1.30;;
14554;SDS011;7364;50.870;4.722;2023-03-23T08:42:40;1.53;;;1.10;;
14554;SDS011;7364;50.870;4.722;2023-03-23T08:45:10;2.77;;;0.93;;
14554;SDS011;7364;50.870;4.722;2023-03-23T08:47:40;2.53;;;0.90;;
14554;SDS011;7364;50.870;4.722;2023-03-23T08:50:10;6.13;;;1.53;;
14554;SDS011;7364;50.870;4.722;2023-03-23T08:52:39;5.67;;;1.00;;
14554;SDS011;7364;50.870;4.722;2023-03-23T08:55:09;2.07;;;1.13;;
14554;SDS011;7364;50.870;4.722;2023-03-23T08:57:37;2.10;;;0.90;;
14554;SDS011;7364;50.870;4.722;2023-03-23T09:00:07;2.77;;;1.20;;
14554;SDS011;7364;50.870;4.722;2023-03-23T09:02:41;3.60;;;1.23;;
14554;SDS011;7364;50.870;4.722;2023-03-23T09:05:10;1.37;;;0.87;;
14554;SDS011;7364;50.870;4.722;2023-03-23T09:07:38;7.40;;;1.13;;
14554;SDS011;7364;50.870;4.722;2023-03-23T09:10:07;2.40;;;1.20;;
14554;SDS011;7364;50.870;4.722;2023-03-23T09:12:38;1.23;;;0.80;;
14554;SDS011;7364;50.870;4.722;2023-03-23T09:15:07;3.67;;;1.00;;
14554;SDS011;7364;50.870;4.722;2023-03-23T09:17:37;4.17;;;1.60;;
14554;SDS011;7364;50.870;4.722;2023-03-23T09:20:10;5.50;;;2.70;;
14554;SDS011;7364;50.870;4.722;2023-03-23T09:22:43;3.40;;;1.10;;
14554;SDS011;7364;50.870;4.722;2023-03-23T09:25:15;1.50;;;0.97;;
14554;SDS011;7364;50.870;4.722;2023-03-23T09:27:45;7.47;;;1.70;;
14554;SDS011;7364;50.870;4.722;2023-03-23T09:30:17;2.77;;;1.10;;
14554;SDS011;7364;50.870;4.722;2023-03-23T09:32:45;5.57;;;1.30;;
14554;SDS011;7364;50.870;4.722;2023-03-23T09:35:15;1.83;;;1.23;;
14554;SDS011;7364;50.870;4.722;2023-03-23T09:37:43;1.70;;;1.10;;
14554;SDS011;7364;50.870;4.722;2023-03-23T09:40:13;2.87;;;1.37;;
14554;SDS011;7364;50.870;4.722;2023-03-23T09:42:58;1.57;;;0.80;;
14554;SDS011;7364;50.870;4.722;2023-03-23T09:45:40;6.93;;;1.40;;
14554;SDS011;7364;50.870;4.722;2023-03-23T09:48:27;2.30;;;1.40;;
14554;SDS011;7364;50.870;4.722;2023-03-23T09:51:01;2.13;;;1.20;;
14554;SDS011;7364;50.870;4.722;2023-03-23T09:53:37;2.57;;;1.03;;
14554;SDS011;7364;50.870;4.722;2023-03-23T09:56:11;3.93;;;1.40;;
14554;SDS011;7364;50.870;4.722;2023-03-23T09:58:46;2.17;;;1.07;;
14554;SDS011;7364;50.870;4.722;2023-03-23T10:01:22;1.83;;;0.90;;
14554;SDS011;7364;50.870;4.722;2023-03-23T10:03:58;2.77;;;1.20;;
14554;SDS011;7364;50.870;4.722;2023-03-23T10:06:34;1.33;;;1.00;;
14554;SDS011;7364;50.870;4.722;2023-03-23T10:09:02;3.23;;;1.50;;
14554;SDS011;7364;50.870;4.722;2023-03-23T10:11:36;2.43;;;1.40;;
14554;SDS011;7364;50.870;4.722;2023-03-23T10:14:17;5.60;;;1.37;;
14554;SDS011;7364;50.870;4.722;2023-03-23T10:16:55;3.33;;;1.33;;
14554;SDS011;7364;50.870;4.722;2023-03-23T10:19:32;2.67;;;1.03;;
14554;SDS011;7364;50.870;4.722;2023-03-23T10:22:07;4.43;;;1.43;;
14554;SDS011;7364;50.870;4.722;2023-03-23T10:24:39;1.90;;;1.00;;
14554;SDS011;7364;50.870;4.722;2023-03-23T10:27:19;2.80;;;1.20;;
14554;SDS011;7364;50.870;4.722;2023-03-23T10:29:53;2.77;;;1.60;;
14554;SDS011;7364;50.870;4.722;2023-03-23T10:32:38;4.27;;;1.60;;
14554;SDS011;7364;50.870;4.722;2023-03-23T10:35:11;3.33;;;1.40;;
14554;SDS011;7364;50.870;4.722;2023-03-23T10:37:44;2.43;;;1.80;;
14554;SDS011;7364;50.870;4.722;2023-03-23T10:40:16;2.67;;;1.40;;
14554;SDS011;7364;50.870;4.722;2023-03-23T10:42:50;1.80;;;1.20;;
14554;SDS011;7364;50.870;4.722;2023-03-23T10:45:20;2.90;;;1.57;;
14554;SDS011;7364;50.870;4.722;2023-03-23T10:47:52;2.30;;;1.60;;
14554;SDS011;7364;50.870;4.722;2023-03-23T10:50:23;4.23;;;1.57;;
14554;SDS011;7364;50.870;4.722;2023-03-23T10:52:56;4.53;;;1.67;;
14554;SDS011;7364;50.870;4.722;2023-03-23T10:55:35;5.27;;;2.00;;
14554;SDS011;7364;50.870;4.722;2023-03-23T10:58:09;10.13;;;2.43;;
14554;SDS011;7364;50.870;4.722;2023-03-23T11:00:40;5.13;;;2.03;;
14554;SDS011;7364;50.870;4.722;2023-03-23T11:03:24;3.70;;;2.00;;
14554;SDS011;7364;50.870;4.722;2023-03-23T11:06:03;4.20;;;2.20;;
14554;SDS011;7364;50.870;4.722;2023-03-23T11:08:35;3.50;;;1.90;;
14554;SDS011;7364;50.870;4.722;2023-03-23T11:11:10;4.10;;;2.30;;
14554;SDS011;7364;50.870;4.722;2023-03-23T11:13:41;2.77;;;2.07;;
14554;SDS011;7364;50.870;4.722;2023-03-23T11:16:21;4.80;;;2.13;;
14554;SDS011;7364;50.870;4.722;2023-03-23T11:18:54;5.97;;;3.07;;
14554;SDS011;7364;50.870;4.722;2023-03-23T11:21:22;3.30;;;2.23;;
14554;SDS011;7364;50.870;4.722;2023-03-23T11:23:52;8.57;;;3.33;;
14554;SDS011;7364;50.870;4.722;2023-03-23T11:26:23;6.23;;;2.73;;
14554;SDS011;7364;50.870;4.722;2023-03-23T11:28:57;7.10;;;3.77;;
14554;SDS011;7364;50.870;4.722;2023-03-23T11:31:30;6.10;;;3.90;;
14554;SDS011;7364;50.870;4.722;2023-03-23T11:34:00;5.90;;;3.33;;
14554;SDS011;7364;50.870;4.722;2023-03-23T11:36:31;6.03;;;4.23;;
14554;SDS011;7364;50.870;4.722;2023-03-23T11:39:00;8.73;;;3.80;;
14554;SDS011;7364;50.870;4.722;2023-03-23T11:41:32;7.10;;;4.47;;
14554;SDS011;7364;50.870;4.722;2023-03-23T11:44:10;5.27;;;3.90;;
14554;SDS011;7364;50.870;4.722;2023-03-23T11:46:41;7.90;;;3.47;;
14554;SDS011;7364;50.870;4.722;2023-03-23T11:49:25;6.07;;;3.90;;
14554;SDS011;7364;50.870;4.722;2023-03-23T11:52:02;4.43;;;2.80;;
14554;SDS011;7364;50.870;4.722;2023-03-23T11:54:40;7.00;;;2.80;;
14554;SDS011;7364;50.870;4.722;2023-03-23T11:57:13;11.97;;;3.40;;
14554;SDS011;7364;50.870;4.722;2023-03-23T11:59:43;5.97;;;3.00;;
14554;SDS011;7364;50.870;4.722;2023-03-23T12:05:26;6.37;;;2.70;;
14554;SDS011;7364;50.870;4.722;2023-03-23T12:08:18;4.23;;;2.40;;
14554;SDS011;7364;50.870;4.722;2023-03-23T12:10:57;4.60;;;2.50;;
14554;SDS011;7364;50.870;4.722;2023-03-23T12:13:39;4.10;;;2.17;;
14554;SDS011;7364;50.870;4.722;2023-03-23T12:16:28;4.50;;;2.47;;
14554;SDS011;7364;50.870;4.722;2023-03-23T12:19:12;11.13;;;3.03;;
14554;SDS011;7364;50.870;4.722;2023-03-23T12:21:58;4.70;;;2.33;;
14554;SDS011;7364;50.870;4.722;2023-03-23T12:24:40;5.60;;;2.20;;
14554;SDS011;7364;50.870;4.722;2023-03-23T12:27:19;4.10;;;2.20;;
14554;SDS011;7364;50.870;4.722;2023-03-23T12:29:56;3.97;;;2.33;;
14554;SDS011;7364;50.870;4.722;2023-03-23T12:32:45;4.67;;;1.97;;
14554;SDS011;7364;50.870;4.722;2023-03-23T12:35:45;3.43;;;1.90;;
14554;SDS011;7364;50.870;4.722;2023-03-23T12:38:25;7.17;;;2.33;;
14554;SDS011;7364;50.870;4.722;2023-03-23T12:41:07;4.77;;;2.30;;
14554;SDS011;7364;50.870;4.722;2023-03-23T12:43:44;8.87;;;2.43;;
14554;SDS011;7364;50.870;4.722;2023-03-23T12:46:24;5.50;;;2.17;;
14554;SDS011;7364;50.870;4.722;2023-03-23T12:49:08;4.37;;;2.33;;
14554;SDS011;7364;50.870;4.722;2023-03-23T12:51:42;4.23;;;2.43;;
14554;SDS011;7364;50.870;4.722;2023-03-23T12:54:18;6.07;;;2.97;;
14554;SDS011;7364;50.870;4.722;2023-03-23T12:56:52;6.87;;;3.40;;
14554;SDS011;7364;50.870;4.722;2023-03-23T12:59:25;6.40;;;2.97;;
14554;SDS011;7364;50.870;4.722;2023-03-23T13:02:01;5.80;;;3.13;;
14554;SDS011;7364;50.870;4.722;2023-03-23T13:04:40;9.50;;;3.07;;
14554;SDS011;7364;50.870;4.722;2023-03-23T13:07:13;5.83;;;3.57;;
14554;SDS011;7364;50.870;4.722;2023-03-23T13:09:48;8.07;;;3.43;;
14554;SDS011;7364;50.870;4.722;2023-03-23T13:12:22;9.73;;;3.90;;
14554;SDS011;7364;50.870;4.722;2023-03-23T13:14:55;9.17;;;3.53;;
14554;SDS011;7364;50.870;4.722;2023-03-23T13:17:35;4.83;;;2.80;;
14554;SDS011;7364;50.870;4.722;2023-03-23T13:20:38;6.03;;;2.40;;
14554;SDS011;7364;50.870;4.722;2023-03-23T13:23:21;6.93;;;3.40;;
14554;SDS011;7364;50.870;4.722;2023-03-23T13:25:53;6.10;;;3.87;;
14554;SDS011;7364;50.870;4.722;2023-03-23T13:28:24;5.80;;;3.00;;
14554;SDS011;7364;50.870;4.722;2023-03-23T13:30:54;7.83;;;3.23;;
14554;SDS011;7364;50.870;4.722;2023-03-23T13:33:23;7.77;;;3.37;;
14554;SDS011;7364;50.870;4.722;2023-03-23T13:35:53;5.90;;;2.73;;
14554;SDS011;7364;50.870;4.722;2023-03-23T13:38:21;6.70;;;3.50;;
14554;SDS011;7364;50.870;4.722;2023-03-23T13:40:51;6.80;;;3.07;;
14554;SDS011;7364;50.870;4.722;2023-03-23T13:43:28;6.73;;;3.20;;
14554;SDS011;7364;50.870;4.722;2023-03-23T13:46:06;6.93;;;3.37;;
14554;SDS011;7364;50.870;4.722;2023-03-23T13:48:45;5.93;;;2.93;;
14554;SDS011;7364;50.870;4.722;2023-03-23T13:51:25;4.37;;;3.10;;
14554;SDS011;7364;50.870;4.722;2023-03-23T13:54:13;6.17;;;3.20;;
14554;SDS011;7364;50.870;4.722;2023-03-23T13:56:53;5.43;;;3.00;;
14554;SDS011;7364;50.870;4.722;2023-03-23T13:59:29;4.67;;;3.10;;
14554;SDS011;7364;50.870;4.722;2023-03-23T14:04:56;5.23;;;3.07;;
14554;SDS011;7364;50.870;4.722;2023-03-23T14:10:21;12.50;;;3.07;;
14554;SDS011;7364;50.870;4.722;2023-03-23T14:12:50;6.90;;;3.13;;
14554;SDS011;7364;50.870;4.722;2023-03-23T14:15:28;8.83;;;3.43;;
14554;SDS011;7364;50.870;4.722;2023-03-23T14:17:56;9.13;;;3.47;;
14554;SDS011;7364;50.870;4.722;2023-03-23T14:20:29;6.93;;;3.37;;
14554;SDS011;7364;50.870;4.722;2023-03-23T14:23:00;5.23;;;2.73;;
14554;SDS011;7364;50.870;4.722;2023-03-23T14:25:28;6.73;;;3.60;;
14554;SDS011;7364;50.870;4.722;2023-03-23T14:27:57;10.97;;;3.57;;
14554;SDS011;7364;50.870;4.722;2023-03-23T14:30:26;6.17;;;2.77;;
14554;SDS011;7364;50.870;4.722;2023-03-23T14:33:03;7.77;;;3.37;;
14554;SDS011;7364;50.870;4.722;2023-03-23T14:35:37;5.90;;;3.10;;
14554;SDS011;7364;50.870;4.722;2023-03-23T14:38:12;7.13;;;2.93;;
14554;SDS011;7364;50.870;4.722;2023-03-23T14:40:45;7.50;;;3.50;;
14554;SDS011;7364;50.870;4.722;2023-03-23T14:43:14;6.33;;;3.60;;
14554;SDS011;7364;50.870;4.722;2023-03-23T14:45:44;6.53;;;3.27;;
14554;SDS011;7364;50.870;4.722;2023-03-23T14:48:14;8.53;;;3.10;;
14554;SDS011;7364;50.870;4.722;2023-03-23T14:50:50;7.13;;;3.37;;
14554;SDS011;7364;50.870;4.722;2023-03-23T14:53:21;7.87;;;3.23;;
14554;SDS011;7364;50.870;4.722;2023-03-23T14:55:51;5.67;;;3.33;;
14554;SDS011;7364;50.870;4.722;2023-03-23T14:58:24;10.30;;;3.40;;
14554;SDS011;7364;50.870;4.722;2023-03-23T15:00:53;11.43;;;4.37;;
14554;SDS011;7364;50.870;4.722;2023-03-23T15:03:26;7.17;;;3.40;;
14554;SDS011;7364;50.870;4.722;2023-03-23T15:05:56;8.53;;;3.80;;
14554;SDS011;7364;50.870;4.722;2023-03-23T15:08:28;10.27;;;3.30;;
14554;SDS011;7364;50.870;4.722;2023-03-23T15:11:02;9.23;;;4.03;;
14554;SDS011;7364;50.870;4.722;2023-03-23T15:13:35;6.60;;;3.67;;
14554;SDS011;7364;50.870;4.722;2023-03-23T15:16:04;8.90;;;3.47;;
14554;SDS011;7364;50.870;4.722;2023-03-23T15:18:38;7.30;;;3.40;;
14554;SDS011;7364;50.870;4.722;2023-03-23T15:21:07;4.20;;;2.10;;
14554;SDS011;7364;50.870;4.722;2023-03-23T15:23:42;9.10;;;3.43;;
14554;SDS011;7364;50.870;4.722;2023-03-23T15:29:08;6.60;;;3.13;;
14554;SDS011;7364;50.870;4.722;2023-03-23T15:31:44;6.20;;;2.53;;
14554;SDS011;7364;50.870;4.722;2023-03-23T15:34:25;8.97;;;2.97;;
14554;SDS011;7364;50.870;4.722;2023-03-23T15:36:58;4.77;;;2.90;;
14554;SDS011;7364;50.870;4.722;2023-03-23T15:39:29;5.90;;;2.80;;
14554;SDS011;7364;50.870;4.722;2023-03-23T15:41:58;5.97;;;3.13;;
14554;SDS011;7364;50.870;4.722;2023-03-23T15:44:28;6.87;;;2.60;;
14554;SDS011;7364;50.870;4.722;2023-03-23T15:47:10;7.87;;;2.50;;